createdAt,value
2018-01-26T09:00:43.199Z,23.56
2018-01-26T09:01:15.204Z,23.53
2018-01-26T09:01:47.237Z,23.57
2018-01-26T09:02:19.196Z,23.6
2018-01-26T09:02:51.337Z,23.6
2018-01-26T09:03:23.335Z,23.55
2018-01-26T09:03:55.339Z,23.53
2018-01-26T09:04:27.349Z,23.53
2018-01-26T09:04:59.343Z,23.53
2018-01-26T09:05:31.351Z,23.56
2018-01-26T09:06:03.359Z,23.6
2018-01-26T09:06:35.365Z,23.57
2018-01-26T09:07:07.386Z,23.59
2018-01-26T09:07:39.414Z,23.55
2018-01-26T09:08:11.443Z,23.6
2018-01-26T09:08:44.203Z,23.57
2018-01-26T09:09:16.195Z,23.6
2018-01-26T09:09:48.198Z,23.57
2018-01-26T09:10:20.204Z,23.62
2018-01-26T09:10:52.174Z,23.56
2018-01-26T09:11:24.313Z,23.62
2018-01-26T09:11:56.404Z,23.62
2018-01-26T09:12:28.430Z,23.7
2018-01-26T09:13:01.263Z,23.62
2018-01-26T09:13:33.301Z,23.62
2018-01-26T09:14:05.290Z,23.66
2018-01-26T09:14:37.289Z,23.67
2018-01-26T09:15:09.287Z,23.71
2018-01-26T09:15:41.327Z,23.72
2018-01-26T09:16:13.328Z,23.7
2018-01-26T09:16:45.330Z,23.71
2018-01-26T09:17:17.431Z,23.64
2018-01-26T09:17:49.382Z,23.72
2018-01-26T09:18:21.420Z,23.63
2018-01-26T09:18:53.437Z,23.71
2018-01-26T09:19:25.422Z,23.71
2018-01-26T09:19:57.449Z,23.7
2018-01-26T09:20:30.156Z,23.71
2018-01-26T09:21:02.193Z,23.7
2018-01-26T09:21:34.983Z,23.63
2018-01-26T09:22:07.101Z,23.75
2018-01-26T09:22:39.094Z,23.71
2018-01-26T09:23:11.083Z,23.67
2018-01-26T09:23:43.101Z,23.67
2018-01-26T09:24:15.076Z,23.71
2018-01-26T09:24:47.054Z,23.75
2018-01-26T09:25:19.081Z,23.72
2018-01-26T09:25:51.061Z,23.75
2018-01-26T09:26:23.028Z,23.74
2018-01-26T09:26:55.050Z,23.72
2018-01-26T09:27:27.062Z,23.71
2018-01-26T09:27:59.220Z,23.7
2018-01-26T09:28:31.221Z,23.67
2018-01-26T09:29:03.216Z,23.74
2018-01-26T09:29:35.204Z,23.74
2018-01-26T09:30:08.154Z,23.7
2018-01-26T09:30:40.197Z,23.66
2018-01-26T09:31:12.417Z,23.75
2018-01-26T09:31:45.260Z,23.72
2018-01-26T09:32:17.261Z,23.77
2018-01-26T09:32:49.308Z,23.78
2018-01-26T09:33:21.427Z,23.74
2018-01-26T09:33:53.515Z,23.74
2018-01-26T09:34:25.520Z,23.77
2018-01-26T09:34:57.532Z,23.72
2018-01-26T09:35:29.545Z,23.7
2018-01-26T09:36:01.559Z,23.77
2018-01-26T09:36:33.558Z,23.81
2018-01-26T09:37:05.517Z,23.72
2018-01-26T09:37:37.539Z,23.77
2018-01-26T09:38:09.574Z,23.75
2018-01-26T09:38:42.569Z,23.74
2018-01-26T09:39:14.567Z,23.77
2018-01-26T09:39:46.678Z,23.75
2018-01-26T09:40:18.689Z,23.74
2018-01-26T09:40:50.679Z,23.75
2018-01-26T09:41:22.789Z,23.75
2018-01-26T09:41:55.362Z,23.75
2018-01-26T09:42:27.387Z,23.74
2018-01-26T09:42:59.361Z,23.74
2018-01-26T09:43:31.392Z,23.78
2018-01-26T09:44:03.353Z,23.77
2018-01-26T09:44:35.416Z,23.78
2018-01-26T09:45:07.418Z,23.77
2018-01-26T09:45:39.403Z,23.74
2018-01-26T09:46:11.431Z,23.75
2018-01-26T09:46:44.994Z,23.78
2018-01-26T09:47:17.024Z,23.78
2018-01-26T09:47:49.089Z,23.74
2018-01-26T09:48:21.066Z,23.78
2018-01-26T09:48:53.114Z,23.78
2018-01-26T09:49:25.144Z,23.75
2018-01-26T09:49:57.106Z,23.87
2018-01-26T09:50:29.097Z,23.81
2018-01-26T09:51:01.146Z,23.77
2018-01-26T09:51:33.181Z,23.87
2018-01-26T09:52:05.265Z,23.87
2018-01-26T09:52:37.294Z,23.77
2018-01-26T09:53:09.421Z,23.77
2018-01-26T09:53:41.432Z,23.82
2018-01-26T09:54:13.419Z,23.79
2018-01-26T09:54:45.488Z,23.78
2018-01-26T09:55:17.504Z,23.77
2018-01-26T09:55:49.552Z,23.79
2018-01-26T09:56:21.703Z,23.85
2018-01-26T09:56:53.759Z,23.82
2018-01-26T09:57:25.846Z,23.81
2018-01-26T09:57:57.864Z,23.78
2018-01-26T09:58:29.900Z,23.89
2018-01-26T09:59:01.921Z,23.84
2018-01-26T09:59:34.038Z,23.87
2018-01-26T10:00:06.045Z,23.81
2018-01-26T10:00:38.160Z,23.9
2018-01-26T10:01:10.119Z,23.89
2018-01-26T10:01:42.141Z,23.81
2018-01-26T10:02:14.168Z,23.96
2018-01-26T10:02:46.206Z,24.02
2018-01-26T10:03:18.180Z,23.89
2018-01-26T10:03:50.877Z,23.96
2018-01-26T10:04:22.881Z,23.87
2018-01-26T10:04:54.864Z,23.93
2018-01-26T10:05:27.040Z,23.94
2018-01-26T10:05:59.079Z,23.89
2018-01-26T10:06:31.094Z,23.97
2018-01-26T10:07:03.034Z,23.97
2018-01-26T10:07:35.068Z,24
2018-01-26T10:08:07.069Z,23.9
2018-01-26T10:08:39.062Z,23.92
2018-01-26T10:09:11.108Z,23.92
2018-01-26T10:09:43.148Z,23.99
2018-01-26T10:10:15.161Z,23.87
2018-01-26T10:10:47.257Z,23.96
2018-01-26T10:11:19.299Z,23.93
2018-01-26T10:11:51.321Z,24.02
2018-01-26T10:12:23.319Z,23.92
2018-01-26T10:12:55.316Z,23.99
2018-01-26T10:13:27.330Z,23.92
2018-01-26T10:13:59.344Z,23.92
2018-01-26T10:14:31.343Z,23.94
2018-01-26T10:15:03.350Z,23.97
2018-01-26T10:15:35.357Z,23.97
2018-01-26T10:16:07.457Z,23.94
2018-01-26T10:16:39.504Z,24.02
2018-01-26T10:17:11.514Z,24.02
2018-01-26T10:17:43.529Z,23.99
2018-01-26T10:18:15.568Z,24.07
2018-01-26T10:18:47.569Z,24.11
2018-01-26T10:19:20.297Z,24.03
2018-01-26T10:19:52.296Z,24.02
2018-01-26T10:20:24.302Z,24.09
2018-01-26T10:20:56.390Z,24.12
2018-01-26T10:21:28.918Z,24.11
2018-01-26T10:22:00.903Z,24.07
2018-01-26T10:22:32.934Z,24.08
2018-01-26T10:23:04.940Z,24.03
2018-01-26T10:23:36.905Z,24.11
2018-01-26T10:24:08.860Z,24.07
2018-01-26T10:24:40.861Z,24.04
2018-01-26T10:25:12.912Z,24.04
2018-01-26T10:25:45.025Z,24.07
2018-01-26T10:26:17.158Z,24.14
2018-01-26T10:26:49.148Z,24.14
2018-01-26T10:27:21.187Z,24.09
2018-01-26T10:27:53.217Z,24.12
2018-01-26T10:28:25.309Z,24.14
2018-01-26T10:28:57.336Z,24.14
2018-01-26T10:29:29.282Z,24.11
2018-01-26T10:30:01.326Z,24.12
2018-01-26T10:30:33.357Z,24.14
2018-01-26T10:31:05.326Z,24.19
2018-01-26T10:31:37.355Z,24.11
2018-01-26T10:32:09.372Z,24.11
2018-01-26T10:32:41.380Z,24.12
2018-01-26T10:33:13.546Z,24.19
2018-01-26T10:33:45.562Z,24.22
2018-01-26T10:34:17.603Z,24.11
2018-01-26T10:34:49.608Z,24.24
2018-01-26T10:35:21.662Z,24.21
2018-01-26T10:35:53.665Z,24.21
2018-01-26T10:36:25.679Z,24.19
2018-01-26T10:36:57.854Z,24.15
2018-01-26T10:37:30.044Z,24.15
2018-01-26T10:38:01.997Z,24.18
2018-01-26T10:38:33.986Z,24.09
2018-01-26T10:39:06.614Z,24.19
2018-01-26T10:39:38.742Z,24.24
2018-01-26T10:40:10.744Z,24.21
2018-01-26T10:40:42.740Z,24.26
2018-01-26T10:41:14.711Z,24.11
2018-01-26T10:41:46.731Z,24.24
2018-01-26T10:42:18.799Z,24.22
2018-01-26T10:42:50.846Z,24.15
2018-01-26T10:43:22.836Z,24.18
2018-01-26T10:43:54.834Z,24.18
2018-01-26T10:44:26.807Z,24.19
2018-01-26T10:44:58.829Z,24.24
2018-01-26T10:45:30.942Z,24.18
2018-01-26T10:46:02.975Z,24.18
2018-01-26T10:46:34.976Z,24.18
2018-01-26T10:47:07.020Z,24.27
2018-01-26T10:47:39.189Z,24.24
2018-01-26T10:48:11.192Z,24.22
2018-01-26T10:48:43.191Z,24.22
2018-01-26T10:49:15.239Z,24.3
2018-01-26T10:49:48.273Z,24.21
2018-01-26T10:50:20.301Z,24.26
2018-01-26T10:50:52.317Z,24.32
2018-01-26T10:51:24.393Z,24.24
2018-01-26T10:51:56.376Z,24.27
2018-01-26T10:52:28.376Z,24.26
2018-01-26T10:53:00.391Z,24.19
2018-01-26T10:53:32.420Z,24.27
2018-01-26T10:54:04.417Z,24.26
2018-01-26T10:54:36.526Z,24.3
2018-01-26T10:55:08.534Z,24.29
2018-01-26T10:55:40.517Z,24.26
2018-01-26T10:56:12.495Z,24.39
2018-01-26T10:56:44.508Z,24.39
2018-01-26T10:57:16.527Z,24.29
2018-01-26T10:57:48.517Z,24.32
2018-01-26T10:58:20.509Z,24.44
2018-01-26T10:58:52.586Z,24.37
2018-01-26T10:59:24.630Z,24.44
2018-01-26T10:59:56.663Z,24.39
2018-01-26T11:00:28.663Z,24.49
2018-01-26T11:01:01.621Z,24.37
2018-01-26T11:01:33.616Z,24.44
2018-01-26T11:02:05.608Z,24.4
2018-01-26T11:02:37.600Z,24.48
2018-01-26T11:03:09.606Z,24.55
2018-01-26T11:03:41.644Z,24.58
2018-01-26T11:04:13.772Z,24.56
2018-01-26T11:04:45.827Z,24.55
2018-01-26T11:05:17.879Z,24.54
2018-01-26T11:05:49.843Z,24.64
2018-01-26T11:06:22.065Z,24.64
2018-01-26T11:06:56.342Z,24.64
2018-01-26T11:07:30.690Z,24.56
2018-01-26T11:08:06.130Z,24.64
2018-01-26T11:08:38.196Z,24.75
2018-01-26T11:09:10.188Z,24.58
2018-01-26T11:09:42.189Z,24.66
2018-01-26T11:10:15.144Z,24.66
2018-01-26T11:10:47.140Z,24.75
2018-01-26T11:11:19.312Z,24.64
2018-01-26T11:11:51.428Z,24.71
2018-01-26T11:12:23.472Z,24.77
2018-01-26T11:12:56.285Z,24.66
2018-01-26T11:13:29.146Z,24.74
2018-01-26T11:14:01.160Z,24.75
2018-01-26T11:14:33.313Z,24.8
2018-01-26T11:15:05.492Z,24.78
2018-01-26T11:16:57.042Z,24.83
2018-01-26T11:17:29.056Z,24.74
2018-01-26T11:18:01.072Z,24.77
2018-01-26T11:18:33.040Z,24.82
2018-01-26T11:19:05.095Z,24.86
2018-01-26T11:19:37.230Z,24.86
2018-01-26T11:20:09.264Z,24.87
2018-01-26T11:20:41.306Z,24.87
2018-01-26T11:21:13.293Z,24.92
2018-01-26T11:21:45.381Z,24.92
2018-01-26T11:22:17.397Z,24.89
2018-01-26T11:22:49.417Z,24.9
2018-01-26T11:23:21.367Z,25
2018-01-26T11:23:53.435Z,24.96
2018-01-26T11:24:25.438Z,25
2018-01-26T11:24:57.423Z,25.05
2018-01-26T11:25:29.412Z,25.02
2018-01-26T11:26:01.439Z,25.01
2018-01-26T11:26:33.490Z,25.02
2018-01-26T11:27:05.505Z,24.96
2018-01-26T11:27:37.458Z,25.02
2018-01-26T11:28:09.434Z,25.02
2018-01-26T11:28:41.432Z,24.97
2018-01-26T11:29:13.472Z,25.04
2018-01-26T11:29:45.531Z,24.97
2018-01-26T11:30:17.559Z,25.07
2018-01-26T11:30:49.578Z,25.09
2018-01-26T11:31:21.565Z,25.04
2018-01-26T11:31:53.602Z,25.05
2018-01-26T11:32:25.577Z,25.14
2018-01-26T11:32:57.634Z,25.14
2018-01-26T11:33:29.678Z,25.05
2018-01-26T11:34:01.704Z,25.12
2018-01-26T11:34:33.703Z,25.09
2018-01-26T11:35:05.670Z,25.14
2018-01-26T11:35:37.677Z,25.12
2018-01-26T11:36:10.926Z,25.09
2018-01-26T11:36:48.414Z,25.08
2018-01-26T11:37:22.910Z,25.14
2018-01-26T11:37:54.890Z,25.14
2018-01-26T11:38:26.943Z,25.14
2018-01-26T11:38:58.980Z,25.11
2018-01-26T11:39:31.036Z,25.14
2018-01-26T11:40:03.884Z,25.14
2018-01-26T11:40:35.870Z,25.11
2018-01-26T11:41:07.891Z,25.08
2018-01-26T11:41:39.915Z,25.07
2018-01-26T11:42:11.915Z,25.07
2018-01-26T11:42:43.910Z,25.07
2018-01-26T11:43:15.963Z,25.09
2018-01-26T11:43:48.008Z,25.12
2018-01-26T11:44:19.961Z,25.11
2018-01-26T11:44:52.060Z,25.15
2018-01-26T11:45:24.173Z,25.17
2018-01-26T11:45:56.170Z,25.11
2018-01-26T11:46:28.215Z,25.12
2018-01-26T11:47:00.185Z,25.15
2018-01-26T11:47:32.192Z,25.14
2018-01-26T11:48:04.202Z,25.15
2018-01-26T11:48:36.854Z,25.14
2018-01-26T11:49:08.831Z,25.15
2018-01-26T11:49:40.830Z,25.09
2018-01-26T11:50:12.817Z,25.15
2018-01-26T11:50:44.845Z,25.2
2018-01-26T11:51:16.784Z,25.11
2018-01-26T11:51:48.753Z,25.17
2018-01-26T11:52:20.758Z,25.22
2018-01-26T11:52:52.761Z,25.11
2018-01-26T11:53:24.838Z,25.09
2018-01-26T11:53:56.828Z,25.11
2018-01-26T11:54:28.776Z,25.17
2018-01-26T11:55:00.778Z,25.07
2018-01-26T11:55:32.831Z,25.14
2018-01-26T11:56:04.846Z,25.15
2018-01-26T11:56:36.945Z,25.11
2018-01-26T11:57:08.987Z,25.14
2018-01-26T11:57:41.005Z,25.04
2018-01-26T11:58:12.997Z,25.12
2018-01-26T11:58:45.016Z,25.15
2018-01-26T11:59:17.013Z,25.09
2018-01-26T11:59:49.519Z,25.12
2018-01-26T12:00:21.522Z,25.07
2018-01-26T12:00:53.511Z,25.08
2018-01-26T12:01:25.520Z,25.07
2018-01-26T12:01:57.575Z,25.11
2018-01-26T12:02:29.551Z,25.04
2018-01-26T12:03:01.551Z,25.04
2018-01-26T12:03:33.625Z,25
2018-01-26T12:04:05.599Z,25.08
2018-01-26T12:04:37.671Z,25.04
2018-01-26T12:05:09.858Z,25.04
2018-01-26T12:05:42.667Z,25.04
2018-01-26T12:06:14.693Z,25.07
2018-01-26T12:06:46.695Z,25.07
2018-01-26T12:07:19.338Z,25.05
2018-01-26T12:07:51.284Z,25.07
2018-01-26T12:08:23.346Z,25.01
2018-01-26T12:08:55.379Z,25.04
2018-01-26T12:09:27.395Z,25.08
2018-01-26T12:09:59.507Z,25.07
2018-01-26T12:10:31.468Z,25.04
2018-01-26T12:11:03.503Z,25.04
2018-01-26T12:11:35.437Z,25.07
2018-01-26T12:12:07.407Z,25.09
2018-01-26T12:12:39.491Z,25.01
2018-01-26T12:13:11.469Z,25.08
2018-01-26T12:13:43.494Z,25.07
2018-01-26T12:14:15.515Z,25.05
